CYPQ

Details ICAO CYPQ (YPQ)
Name PETERBOROUGH
Region Canada
Timezone America/Toronto (UTC-5.0)
Plans Departing 10
Arriving 13
Stats Elevation 628 ft / 191 m (AMSL)
Location 44.225814° -78.360029°
Runways 2
Magnetic Variation 11.293° W
Sunrise 2017-12-12 12:41:19 UTC / 2017-12-12 07:41:19 Local
Sunset 2017-12-12 21:36:05 UTC / 2017-12-12 16:36:05 Local
Advertisement - Login to hide

Runways

ID Width Length Bearing (true) Bearing (mag) Surface Threshold Offset Overrun Length
09 100 ft / 30 m 4,993 ft / 1,522 m 76.01° 87.30° Asphalt 0 ft / 0 m 0 ft / 0 m
13 100 ft / 30 m 1,968 ft / 600 m 117.62° 128.91° Grass 0 ft / 0 m 0 ft / 0 m
27 100 ft / 30 m 4,993 ft / 1,522 m 256.02° 267.31° Asphalt 0 ft / 0 m 0 ft / 0 m
31 100 ft / 30 m 1,968 ft / 600 m 297.62° 308.91° Grass 550 ft / 168 m 0 ft / 0 m

Map

Weather


0- 5 10 15 20 25 30 35+ Temperature / ° C

Clouds and Precipitation
Forecast for 2017-12-13 00:00 UTC. Updated 26 minutes ago

Ground ~20,000 ft ~40,000 ft Winds

METAR

CYPQ 122332Z AUTO 25010G15KT 9SM -SN BKN022 BKN026 OVC038 M09/M11 A2953 RMK SLP014

TAF

TAF CYPQ 121938Z 1220/1303 27012G22KT 6SM -SN SCT015 OVC030 TEMPO 1220/1221 2SM -SHSN BLSN OVC015 BECMG 1301/1303 32015G25KT RMK FCST BASED ON AUTO OBS. NXT FCST WILL BE ISSUED AT 131045Z

Frequencies

Recorded 126.92 MHz AWOS
Unicom 123.00 MHz CTAF/UNICOM
Warning: Do not use this data for real-world aviation or navigation. No guarantee of current accuracy is given.